Time;durP1;ratioP1;P1;durP2;ratioP2;P2;SDS_P1;SDS_P2;PMS_P1;PMS_P2;Temp;Humidity;BMP_temperature;BMP_pressure;BME280_temperature;BME280_humidity;BME280_pressure;Samples;Min_cycle;Max_cycle;Signal;HPM_P1;HPM_P2
2022/06/01 00:00:49;;;;;;;;;;;10.20;99.90;;;;;;5008031;28;19926;-82
2022/06/01 00:03:17;;;;;;;;;;;10.30;99.90;;;;;;5016304;28;19929;-82
2022/06/01 00:05:44;;;;;;;;;;;10.20;99.90;;;;;;5007839;28;19932;-82
2022/06/01 00:08:13;;;;;;;;;;;10.20;99.90;;;;;;5040573;28;19925;-82
2022/06/01 00:10:42;;;;;;;;;;;10.10;99.90;;;;;;5044161;28;19929;-82
2022/06/01 00:13:10;;;;;;;;;;;10.10;99.90;;;;;;5026404;28;19924;-82
2022/06/01 00:15:38;;;;;;;;;;;10.10;99.90;;;;;;5011087;28;19959;-82
2022/06/01 00:18:06;;;;;;;;;;;10.10;99.90;;;;;;5027216;28;19939;-82
2022/06/01 00:20:35;;;;;;;;;;;10.00;99.90;;;;;;5009272;28;20072;-83
2022/06/01 00:23:05;;;;;;;;;;;10.00;99.90;;;;;;5018700;28;19929;-82
2022/06/01 00:25:33;;;;;;;;;;;10.00;99.90;;;;;;5024395;28;19936;-82
2022/06/01 00:28:01;;;;;;;;;;;10.00;99.90;;;;;;5007912;28;19933;-82
2022/06/01 00:30:30;;;;;;;;;;;9.90;99.90;;;;;;5007854;28;19926;-83
2022/06/01 00:32:57;;;;;;;;;;;10.10;99.90;;;;;;5024903;28;19933;-82
2022/06/01 00:35:26;;;;;;;;;;;9.90;99.90;;;;;;5041954;28;19929;-82
2022/06/01 00:37:54;;;;;;;;;;;9.90;99.90;;;;;;5014271;28;19937;-82
2022/06/01 00:40:26;;;;;;;;;;;9.90;99.90;;;;;;5011908;28;19936;-83
2022/06/01 00:42:57;;;;;;;;;;;9.90;99.90;;;;;;5011438;28;19929;-82
2022/06/01 00:45:30;;;;;;;;;;;9.80;99.90;;;;;;5036422;28;19932;-82
2022/06/01 00:47:59;;;;;;;;;;;9.90;99.90;;;;;;5000550;28;19935;-83
2022/06/01 00:50:28;;;;;;;;;;;9.80;99.90;;;;;;4672497;28;9999904;-82
2022/06/01 00:53:06;;;;;;;;;;;9.60;99.90;;;;;;5026066;28;19961;-82
2022/06/01 00:55:37;;;;;;;;;;;9.90;99.90;;;;;;5027820;28;19932;-82
2022/06/01 00:58:09;;;;;;;;;;;9.80;99.90;;;;;;5027237;28;19925;-82
2022/06/01 01:00:38;;;;;;;;;;;9.80;99.90;;;;;;5017381;28;19929;-82
2022/06/01 01:03:10;;;;;;;;;;;9.80;99.90;;;;;;5027169;28;19926;-82
2022/06/01 01:05:40;;;;;;;;;;;9.70;99.90;;;;;;5045140;28;19929;-82
2022/06/01 01:08:09;;;;;;;;;;;9.70;99.90;;;;;;4996775;28;19932;-81
2022/06/01 01:10:38;;;;;;;;;;;10.00;99.90;;;;;;5007203;28;20409;-82
2022/06/01 01:13:08;;;;;;;;;;;9.70;99.90;;;;;;5039114;28;19940;-82
2022/06/01 01:15:52;;;;;;;;;;;9.80;99.90;;;;;;5028952;28;19932;-82
2022/06/01 01:18:23;;;;;;;;;;;9.70;99.90;;;;;;5026044;28;19936;-82
2022/06/01 01:21:18;;;;;;;;;;;9.70;99.90;;;;;;5025595;28;19925;-82
2022/06/01 01:23:50;;;;;;;;;;;9.80;99.90;;;;;;5001256;28;19933;-82
2022/06/01 01:26:19;;;;;;;;;;;9.70;99.90;;;;;;4991055;28;19926;-82
2022/06/01 01:28:47;;;;;;;;;;;9.80;99.90;;;;;;5005577;28;20023;-83
2022/06/01 01:31:18;;;;;;;;;;;9.60;99.90;;;;;;5023254;28;19929;-82
2022/06/01 01:33:47;;;;;;;;;;;9.60;99.90;;;;;;5005639;28;19925;-83
2022/06/01 01:36:17;;;;;;;;;;;11.10;99.90;;;;;;5023139;28;19933;-82
2022/06/01 01:38:55;;;;;;;;;;;9.60;99.90;;;;;;5025068;28;19935;-82
2022/06/01 01:41:31;;;;;;;;;;;9.60;99.90;;;;;;5024889;28;19926;-82
2022/06/01 01:44:05;;;;;;;;;;;9.60;99.90;;;;;;5023197;28;19926;-82
2022/06/01 01:46:34;;;;;;;;;;;9.60;99.90;;;;;;5023286;28;19933;-82
2022/06/01 02:22:54;;;;;;;;;;;9.60;99.90;;;;;;5012881;28;19929;-83
2022/06/01 02:25:23;;;;;;;;;;;9.60;99.90;;;;;;5004996;28;20338;-82
2022/06/01 02:27:54;;;;;;;;;;;9.50;99.90;;;;;;4989606;28;19926;-82
2022/06/01 02:30:26;;;;;;;;;;;9.50;99.90;;;;;;5004913;28;20379;-82
2022/06/01 02:32:55;;;;;;;;;;;9.80;99.90;;;;;;5024826;28;19925;-82
2022/06/01 02:35:29;;;;;;;;;;;9.80;99.90;;;;;;5010686;28;19929;-82
2022/06/01 02:37:58;;;;;;;;;;;9.70;99.90;;;;;;5013414;28;19929;-83
2022/06/01 02:40:28;;;;;;;;;;;8.90;99.90;;;;;;5029130;28;19929;-83
2022/06/01 02:42:57;;;;;;;;;;;9.90;99.90;;;;;;5013555;28;19939;-83
2022/06/01 02:45:26;;;;;;;;;;;9.50;99.90;;;;;;5004959;28;20399;-82
2022/06/01 02:47:55;;;;;;;;;;;9.90;99.90;;;;;;5040375;28;19925;-83
2022/06/01 02:50:24;;;;;;;;;;;9.50;99.90;;;;;;5022346;28;19932;-82
2022/06/01 02:52:53;;;;;;;;;;;9.60;99.90;;;;;;5025343;28;19929;-82
2022/06/01 02:55:22;;;;;;;;;;;9.60;99.90;;;;;;5044042;28;19940;-82
2022/06/01 02:57:51;;;;;;;;;;;9.50;99.90;;;;;;5010572;28;19925;-82
2022/06/01 03:00:19;;;;;;;;;;;11.30;99.90;;;;;;5027215;28;19960;-81
2022/06/01 03:02:48;;;;;;;;;;;9.50;99.90;;;;;;5027508;28;19932;-83
2022/06/01 03:05:17;;;;;;;;;;;9.50;99.90;;;;;;5027412;28;19933;-83
2022/06/01 03:07:46;;;;;;;;;;;9.50;99.90;;;;;;5010231;28;19925;-83
2022/06/01 03:10:15;;;;;;;;;;;9.50;99.90;;;;;;5027395;28;19931;-82
2022/06/01 03:12:43;;;;;;;;;;;9.40;99.90;;;;;;5015162;28;19930;-82
2022/06/01 03:15:12;;;;;;;;;;;9.40;99.90;;;;;;5007472;28;19926;-82
2022/06/01 03:17:40;;;;;;;;;;;11.00;99.90;;;;;;5029156;28;19932;-82
2022/06/01 03:20:08;;;;;;;;;;;9.40;99.90;;;;;;5029403;28;19925;-82
2022/06/01 03:22:37;;;;;;;;;;;9.30;99.90;;;;;;5047529;28;19928;-83
2022/06/01 03:25:06;;;;;;;;;;;9.30;99.90;;;;;;5013822;28;19925;-82
2022/06/01 03:27:34;;;;;;;;;;;10.40;99.90;;;;;;5030088;28;19925;-82
2022/06/01 03:30:03;;;;;;;;;;;9.20;99.90;;;;;;5046063;28;20411;-82
2022/06/01 03:32:31;;;;;;;;;;;9.30;99.90;;;;;;5037772;28;19932;-83
2022/06/01 03:34:58;;;;;;;;;;;9.20;99.90;;;;;;5026999;28;19926;-82
2022/06/01 03:37:31;;;;;;;;;;;9.10;99.90;;;;;;5009387;28;19953;-84
2022/06/01 03:40:02;;;;;;;;;;;9.20;99.90;;;;;;4675292;28;9999806;-84
2022/06/01 03:42:30;;;;;;;;;;;8.90;99.90;;;;;;4989492;28;19936;-83
2022/06/01 03:47:48;;;;;;;;;;;9.10;99.90;;;;;;5028156;28;19937;-83
2022/06/01 03:50:17;;;;;;;;;;;9.10;99.90;;;;;;5027145;28;19929;-82
2022/06/01 03:52:46;;;;;;;;;;;9.30;99.90;;;;;;5024289;28;19929;-82
2022/06/01 03:55:16;;;;;;;;;;;9.10;99.90;;;;;;5028535;28;19929;-82
2022/06/01 03:57:49;;;;;;;;;;;9.10;99.90;;;;;;5026920;28;19943;-82
2022/06/01 04:00:21;;;;;;;;;;;9.10;99.90;;;;;;5026440;28;20304;-82
2022/06/01 04:02:53;;;;;;;;;;;9.10;99.90;;;;;;5025725;28;19933;-82
2022/06/01 04:05:25;;;;;;;;;;;9.00;99.90;;;;;;5025085;28;19930;-82
2022/06/01 04:07:54;;;;;;;;;;;9.00;99.90;;;;;;5025140;28;20525;-82
2022/06/01 04:10:22;;;;;;;;;;;9.10;99.90;;;;;;5007031;28;19936;-82
2022/06/01 04:12:56;;;;;;;;;;;9.00;99.90;;;;;;5010042;28;19925;-81
2022/06/01 04:15:25;;;;;;;;;;;9.10;99.90;;;;;;5026343;28;19936;-83
2022/06/01 04:17:54;;;;;;;;;;;9.00;99.90;;;;;;5009843;28;20288;-82
2022/06/01 04:20:23;;;;;;;;;;;9.10;99.90;;;;;;5018014;28;19936;-83
2022/06/01 04:22:54;;;;;;;;;;;9.10;99.90;;;;;;5025077;28;19930;-81
2022/06/01 04:25:23;;;;;;;;;;;7.70;99.90;;;;;;5026071;28;19930;-82
2022/06/01 04:27:52;;;;;;;;;;;7.60;99.90;;;;;;5026052;28;19931;-82
2022/06/01 04:30:21;;;;;;;;;;;9.10;99.90;;;;;;5026755;28;20402;-82
2022/06/01 04:32:51;;;;;;;;;;;9.10;99.90;;;;;;5009854;28;19930;-82
2022/06/01 04:35:21;;;;;;;;;;;9.10;99.90;;;;;;5041545;28;19925;-82
2022/06/01 04:37:49;;;;;;;;;;;9.10;99.90;;;;;;5015961;28;19925;-82
2022/06/01 04:40:18;;;;;;;;;;;9.10;99.90;;;;;;4993702;28;19933;-82
2022/06/01 04:42:46;;;;;;;;;;;8.50;99.90;;;;;;5010236;28;19936;-82
2022/06/01 04:45:15;;;;;;;;;;;9.20;99.90;;;;;;5046171;28;19925;-82
2022/06/01 04:47:44;;;;;;;;;;;9.20;99.90;;;;;;5017362;28;19935;-82
2022/06/01 04:50:12;;;;;;;;;;;9.20;99.90;;;;;;5032324;28;19929;-82
2022/06/01 04:52:40;;;;;;;;;;;8.50;99.90;;;;;;4999205;28;20294;-82
2022/06/01 04:55:08;;;;;;;;;;;9.20;99.90;;;;;;5015178;28;19945;-82
2022/06/01 04:57:37;;;;;;;;;;;9.30;99.90;;;;;;4993397;28;19926;-82
2022/06/01 05:00:06;;;;;;;;;;;9.30;99.90;;;;;;5007502;28;19925;-82
2022/06/01 05:02:36;;;;;;;;;;;9.40;99.90;;;;;;5007935;28;19925;-82
2022/06/01 05:05:04;;;;;;;;;;;9.40;99.90;;;;;;4999596;28;19926;-82
2022/06/01 05:07:33;;;;;;;;;;;9.30;99.90;;;;;;5042925;28;19925;-82
2022/06/01 05:10:02;;;;;;;;;;;9.40;99.90;;;;;;5026726;28;19929;-82
2022/06/01 05:12:32;;;;;;;;;;;9.30;99.90;;;;;;5026623;28;19925;-83
2022/06/01 05:15:01;;;;;;;;;;;9.40;99.90;;;;;;5026334;28;19925;-82
2022/06/01 05:17:32;;;;;;;;;;;9.40;99.90;;;;;;5024797;28;19925;-82
2022/06/01 05:20:00;;;;;;;;;;;9.70;99.90;;;;;;5042681;28;20287;-82
2022/06/01 05:22:29;;;;;;;;;;;9.50;99.90;;;;;;5025633;28;20293;-82
2022/06/01 05:24:58;;;;;;;;;;;9.60;99.90;;;;;;5043956;28;19940;-82
2022/06/01 05:27:26;;;;;;;;;;;9.60;99.90;;;;;;5025796;28;19925;-82
2022/06/01 05:29:54;;;;;;;;;;;9.60;99.90;;;;;;5043584;28;19925;-82
2022/06/01 05:32:22;;;;;;;;;;;9.70;99.90;;;;;;5044111;28;19929;-82
2022/06/01 05:34:53;;;;;;;;;;;9.30;99.90;;;;;;5021201;28;19929;-82
2022/06/01 05:37:21;;;;;;;;;;;9.70;99.90;;;;;;5001949;28;19930;-83
2022/06/01 05:39:49;;;;;;;;;;;9.70;99.90;;;;;;5018551;28;20078;-82
2022/06/01 05:42:18;;;;;;;;;;;9.80;99.90;;;;;;5005355;28;19930;-82
2022/06/01 05:44:46;;;;;;;;;;;10.00;99.90;;;;;;5017170;28;19926;-82
2022/06/01 05:47:16;;;;;;;;;;;9.80;99.90;;;;;;5018854;28;19934;-82
2022/06/01 05:49:44;;;;;;;;;;;9.40;99.90;;;;;;5022264;28;20434;-82
2022/06/01 05:52:13;;;;;;;;;;;9.90;99.90;;;;;;5017228;28;19937;-83
2022/06/01 05:54:41;;;;;;;;;;;9.50;99.90;;;;;;5004819;28;19937;-83
2022/06/01 05:57:10;;;;;;;;;;;9.90;99.90;;;;;;4987072;28;20123;-82
2022/06/01 05:59:38;;;;;;;;;;;9.90;99.90;;;;;;5004429;28;19934;-81
2022/06/01 06:02:09;;;;;;;;;;;9.90;99.90;;;;;;5009388;28;19932;-81
2022/06/01 06:04:40;;;;;;;;;;;9.90;99.90;;;;;;5022047;28;19929;-82
2022/06/01 06:07:13;;;;;;;;;;;9.90;99.90;;;;;;5021474;28;19940;-83
2022/06/01 06:09:40;;;;;;;;;;;10.00;99.90;;;;;;5021626;28;19932;-83
2022/06/01 06:12:08;;;;;;;;;;;10.00;99.90;;;;;;5038749;28;19941;-82
2022/06/01 06:14:41;;;;;;;;;;;10.10;99.90;;;;;;5023580;28;19925;-83
2022/06/01 06:17:09;;;;;;;;;;;10.00;99.90;;;;;;5023281;28;19932;-82
2022/06/01 06:19:38;;;;;;;;;;;10.40;99.90;;;;;;5023485;28;19936;-81
2022/06/01 06:22:06;;;;;;;;;;;9.70;99.90;;;;;;5001012;28;19932;-83
2022/06/01 06:24:34;;;;;;;;;;;10.60;99.90;;;;;;5021459;28;19935;-82
2022/06/01 06:27:02;;;;;;;;;;;10.70;99.90;;;;;;5021510;28;19930;-83
2022/06/01 06:29:31;;;;;;;;;;;10.30;99.90;;;;;;5020141;28;19937;-83
2022/06/01 06:32:00;;;;;;;;;;;11.10;99.90;;;;;;5001944;28;19929;-82
2022/06/01 06:34:28;;;;;;;;;;;11.00;99.90;;;;;;5022095;28;20414;-82
2022/06/01 06:36:58;;;;;;;;;;;11.20;99.90;;;;;;5022353;28;19929;-82
2022/06/01 06:39:26;;;;;;;;;;;11.40;99.90;;;;;;5022949;28;19929;-83
2022/06/01 06:41:54;;;;;;;;;;;11.20;99.90;;;;;;5006405;28;19926;-82
2022/06/01 06:44:27;;;;;;;;;;;11.50;99.90;;;;;;5010392;28;19929;-83
2022/06/01 06:46:55;;;;;;;;;;;11.70;99.90;;;;;;5017747;28;20008;-83
2022/06/01 06:49:23;;;;;;;;;;;11.80;99.90;;;;;;5014805;28;19929;-81
2022/06/01 06:51:51;;;;;;;;;;;13.50;99.90;;;;;;4989628;28;19925;-83
2022/06/01 06:54:19;;;;;;;;;;;12.10;99.90;;;;;;5006693;28;19925;-82
2022/06/01 06:56:53;;;;;;;;;;;12.70;99.90;;;;;;5015637;28;19929;-82
2022/06/01 06:59:22;;;;;;;;;;;12.30;99.90;;;;;;5005402;28;19925;-82
2022/06/01 07:01:51;;;;;;;;;;;12.30;99.90;;;;;;5006625;28;19956;-82
2022/06/01 07:04:20;;;;;;;;;;;12.30;99.90;;;;;;5008523;28;19933;-82
2022/06/01 07:06:54;;;;;;;;;;;12.30;99.90;;;;;;5003717;28;19930;-82
2022/06/01 07:09:32;;;;;;;;;;;12.30;99.90;;;;;;5008037;28;19929;-81
2022/06/01 07:12:05;;;;;;;;;;;12.30;99.90;;;;;;5016763;28;20378;-81
2022/06/01 07:14:37;;;;;;;;;;;12.30;99.90;;;;;;5026242;28;19932;-81
2022/06/01 07:17:06;;;;;;;;;;;12.40;99.90;;;;;;5017554;28;19929;-82
2022/06/01 07:19:37;;;;;;;;;;;12.30;99.90;;;;;;5011097;28;19945;-82
2022/06/01 07:25:15;;;;;;;;;;;;;;;;;;;;;
2022/06/01 07:28:36;;;;;;;;;;;12.60;99.90;;;;;;4997513;28;19941;-92
2022/06/01 07:34:18;;;;;;;;;;;12.60;99.90;;;;;;4998555;28;19937;-80
2022/06/01 07:36:46;;;;;;;;;;;12.70;99.90;;;;;;5005340;28;19933;-80
2022/06/01 07:44:52;;;;;;;;;;;12.90;99.90;;;;;;4997687;28;19930;-79
2022/06/01 07:47:20;;;;;;;;;;;13.10;99.90;;;;;;4999404;28;20354;-79
2022/06/01 07:50:09;;;;;;;;;;;13.30;99.90;;;;;;5007680;28;19932;-78
2022/06/01 07:52:58;;;;;;;;;;;13.50;99.90;;;;;;4999023;28;19932;-78
2022/06/01 07:55:29;;;;;;;;;;;13.60;99.90;;;;;;5049791;23;19925;-91
2022/06/01 07:58:48;;;;;;;;;;;13.70;99.90;;;;;;5002863;28;19933;-89
2022/06/01 08:00:58;;;;;;;;;;;13.70;99.90;;;;;;4991057;28;19933;-91
2022/06/01 08:03:28;;;;;;;;;;;13.70;99.90;;;;;;4999408;28;19944;-91
2022/06/01 08:05:56;;;;;;;;;;;13.70;99.90;;;;;;5001654;28;19929;-91
2022/06/01 08:08:25;;;;;;;;;;;13.70;99.90;;;;;;5011998;28;19925;-90
2022/06/01 08:10:59;;;;;;;;;;;13.70;99.90;;;;;;4987186;28;19932;-92
2022/06/01 08:13:29;;;;;;;;;;;13.70;99.90;;;;;;4993070;28;19932;-90
2022/06/01 08:15:58;;;;;;;;;;;13.70;99.90;;;;;;4982804;28;19925;-91
2022/06/01 08:18:30;;;;;;;;;;;13.70;99.90;;;;;;4969153;28;20277;-91
2022/06/01 08:21:07;;;;;;;;;;;14.00;99.90;;;;;;5026421;23;19926;-91
2022/06/01 08:23:41;;;;;;;;;;;13.80;99.90;;;;;;4995282;28;19926;-92
2022/06/01 08:26:37;;;;;;;;;;;13.90;99.90;;;;;;4995372;28;20005;-91
2022/06/01 08:29:08;;;;;;;;;;;13.90;99.90;;;;;;5012109;22;19924;-91
2022/06/01 08:31:40;;;;;;;;;;;14.00;99.90;;;;;;4998788;28;19929;-91
2022/06/01 08:34:15;;;;;;;;;;;14.00;99.90;;;;;;4968322;28;20732;-92
2022/06/01 08:37:03;;;;;;;;;;;14.00;99.90;;;;;;5003260;28;19913;-90
2022/06/01 08:39:56;;;;;;;;;;;14.10;99.90;;;;;;5019484;22;19932;-90
2022/06/01 08:42:28;;;;;;;;;;;14.40;99.90;;;;;;5015720;28;19926;-89
2022/06/01 08:45:17;;;;;;;;;;;14.20;99.90;;;;;;5011132;28;20598;-91
2022/06/01 08:47:53;;;;;;;;;;;14.40;99.90;;;;;;5003590;23;19937;-79
2022/06/01 08:50:41;;;;;;;;;;;14.50;99.90;;;;;;4996593;28;20406;-79
2022/06/01 08:53:09;;;;;;;;;;;14.50;99.90;;;;;;4995856;28;19930;-80
2022/06/01 08:55:49;;;;;;;;;;;14.50;99.90;;;;;;4972530;28;19926;-80
2022/06/01 08:58:26;;;;;;;;;;;14.60;99.90;;;;;;4976009;28;19941;-80
2022/06/01 09:01:07;;;;;;;;;;;13.60;99.80;;;;;;4978134;28;19959;-80
2022/06/01 09:04:02;;;;;;;;;;;13.70;99.90;;;;;;4959646;28;19927;-80
2022/06/01 09:06:37;;;;;;;;;;;14.50;99.90;;;;;;4975249;28;19934;-82
2022/06/01 09:09:23;;;;;;;;;;;14.60;99.90;;;;;;4972749;28;19927;-80
2022/06/01 09:11:52;;;;;;;;;;;14.60;99.90;;;;;;4969768;28;19960;-79
2022/06/01 09:14:30;;;;;;;;;;;14.50;99.90;;;;;;4972053;28;19937;-81
2022/06/01 09:16:59;;;;;;;;;;;14.70;99.70;;;;;;4970667;28;19945;-80
2022/06/01 09:22:41;;;;;;;;;;;14.90;99.60;;;;;;4970333;28;19930;-79
2022/06/01 09:25:11;;;;;;;;;;;15.60;99.70;;;;;;4972698;28;19934;-80
2022/06/01 09:27:41;;;;;;;;;;;15.10;99.20;;;;;;4971085;28;19926;-83
2022/06/01 09:30:20;;;;;;;;;;;15.20;98.80;;;;;;4976030;28;20327;-80
2022/06/01 09:33:06;;;;;;;;;;;15.30;98.50;;;;;;4943260;28;19945;-81
2022/06/01 09:35:37;;;;;;;;;;;15.40;98.40;;;;;;4959414;28;19934;-80
2022/06/01 09:38:25;;;;;;;;;;;15.60;98.30;;;;;;4968120;28;19934;-80
2022/06/01 09:41:18;;;;;;;;;;;15.70;98.30;;;;;;4963553;28;19926;-82
2022/06/01 09:43:49;;;;;;;;;;;15.80;97.70;;;;;;4952917;28;19941;-79
2022/06/01 09:46:34;;;;;;;;;;;15.80;97.70;;;;;;4971566;28;19949;-79
2022/06/01 09:49:05;;;;;;;;;;;15.90;96.90;;;;;;4966554;28;19946;-80
2022/06/01 09:51:34;;;;;;;;;;;15.90;97.30;;;;;;4955491;29;19941;-80
2022/06/01 09:54:12;;;;;;;;;;;16.30;97.90;;;;;;4954849;28;19931;-79
2022/06/01 09:56:45;;;;;;;;;;;16.10;97.60;;;;;;4956721;28;19927;-79
2022/06/01 10:08:04;;;;;;;;;;;16.40;96.90;;;;;;4968428;28;19941;-80
2022/06/01 10:10:32;;;;;;;;;;;16.70;96.80;;;;;;4954737;29;19926;-80
2022/06/01 10:13:01;;;;;;;;;;;16.80;95.30;;;;;;4969345;28;20222;-80
2022/06/01 10:15:45;;;;;;;;;;;16.80;96.00;;;;;;4966564;28;19930;-79
2022/06/01 10:18:17;;;;;;;;;;;16.90;95.80;;;;;;4954866;29;19938;-79
2022/06/01 10:20:45;;;;;;;;;;;16.90;95.50;;;;;;4972292;28;20040;-80
2022/06/01 10:23:39;;;;;;;;;;;16.80;95.80;;;;;;4937916;29;19935;-80
2022/06/01 10:26:17;;;;;;;;;;;16.70;95.00;;;;;;4939710;29;19934;-81
2022/06/01 10:28:47;;;;;;;;;;;16.60;94.70;;;;;;4940676;29;19926;-80
2022/06/01 10:31:51;;;;;;;;;;;16.40;94.90;;;;;;4936410;29;19931;-81
2022/06/01 10:34:32;;;;;;;;;;;16.20;95.30;;;;;;4863098;29;19936;-79
2022/06/01 10:37:31;;;;;;;;;;;16.00;95.40;;;;;;4916620;29;20252;-81
2022/06/01 10:40:17;;;;;;;;;;;15.80;95.60;;;;;;4939522;29;19938;-79
2022/06/01 10:45:43;;;;;;;;;;;15.50;96.20;;;;;;4940027;28;19934;-81
2022/06/01 10:48:17;;;;;;;;;;;15.40;96.20;;;;;;4917896;29;19942;-80
2022/06/01 10:51:19;;;;;;;;;;;15.30;96.70;;;;;;4921202;29;19927;-80
2022/06/01 10:57:58;;;;;;;;;;;15.10;97.30;;;;;;4920710;29;19942;-80
2022/06/01 11:00:35;;;;;;;;;;;15.00;97.00;;;;;;4918747;29;19935;-81
2022/06/01 11:03:21;;;;;;;;;;;15.00;97.40;;;;;;4921792;29;19942;-79
2022/06/01 11:06:10;;;;;;;;;;;14.90;97.50;;;;;;4935701;29;19931;-79
2022/06/01 11:08:57;;;;;;;;;;;14.80;97.80;;;;;;4920252;29;20411;-80
2022/06/01 11:11:31;;;;;;;;;;;14.80;97.80;;;;;;4935405;29;19927;-79
2022/06/01 11:14:18;;;;;;;;;;;14.70;98.10;;;;;;4939545;29;19967;-80
2022/06/01 11:17:24;;;;;;;;;;;14.70;97.90;;;;;;4950460;28;19927;-79
2022/06/01 11:19:56;;;;;;;;;;;14.70;98.50;;;;;;4898719;29;19942;-81
2022/06/01 11:22:27;;;;;;;;;;;14.70;98.30;;;;;;4900061;29;20261;-79
2022/06/01 11:25:13;;;;;;;;;;;14.80;98.50;;;;;;4923244;29;19928;-80
2022/06/01 11:27:41;;;;;;;;;;;14.70;98.90;;;;;;4934981;29;19935;-79
2022/06/01 11:30:14;;;;;;;;;;;14.90;99.70;;;;;;4919836;29;20884;-80
2022/06/01 11:33:41;;;;;;;;;;;15.00;99.30;;;;;;4917338;29;19946;-79
2022/06/01 11:36:15;;;;;;;;;;;15.20;99.00;;;;;;4933476;28;20412;-80
2022/06/01 11:38:49;;;;;;;;;;;15.30;98.60;;;;;;4926080;29;20477;-80
2022/06/01 11:41:26;;;;;;;;;;;15.60;98.40;;;;;;4941280;29;19938;-79
2022/06/01 11:43:58;;;;;;;;;;;15.80;97.80;;;;;;4939687;29;19931;-79
2022/06/01 11:46:58;;;;;;;;;;;17.90;97.70;;;;;;4925951;29;19935;-79
2022/06/01 11:49:32;;;;;;;;;;;16.30;97.60;;;;;;4932680;28;19934;-79
2022/06/01 11:52:16;;;;;;;;;;;16.60;97.50;;;;;;4961020;28;19941;-82
2022/06/01 11:54:54;;;;;;;;;;;16.90;97.50;;;;;;4959146;28;19942;-80
2022/06/01 11:57:47;;;;;;;;;;;17.20;97.60;;;;;;4941196;29;19935;-79
2022/06/01 12:00:35;;;;;;;;;;;17.40;96.90;;;;;;4940319;29;19946;-79
2022/06/01 12:03:19;;;;;;;;;;;17.80;96.50;;;;;;4914164;28;19938;-79
2022/06/01 12:06:06;;;;;;;;;;;17.80;95.50;;;;;;4957830;28;19937;-79
2022/06/01 12:08:40;;;;;;;;;;;17.90;95.30;;;;;;4941605;29;19927;-83
2022/06/01 12:11:11;;;;;;;;;;;18.00;95.50;;;;;;4942761;29;19949;-78
2022/06/01 12:13:43;;;;;;;;;;;18.10;94.70;;;;;;4955538;28;19931;-78
2022/06/01 12:16:36;;;;;;;;;;;18.20;95.10;;;;;;4941734;29;19942;-80
2022/06/01 12:19:11;;;;;;;;;;;18.40;94.20;;;;;;4941342;29;19941;-79
2022/06/01 12:22:01;;;;;;;;;;;18.50;93.10;;;;;;4960650;28;20442;-79
2022/06/01 12:30:24;;;;;;;;;;;18.70;92.10;;;;;;4973858;28;19938;-79
2022/06/01 12:33:00;;;;;;;;;;;18.70;91.70;;;;;;4957711;29;20100;-79
2022/06/01 12:36:06;;;;;;;;;;;17.40;91.60;;;;;;4970011;28;20486;-80
2022/06/01 12:38:43;;;;;;;;;;;19.00;91.60;;;;;;4957511;28;19926;-79
2022/06/01 12:41:29;;;;;;;;;;;19.20;92.00;;;;;;4957788;28;19935;-79
2022/06/01 12:43:58;;;;;;;;;;;19.30;91.50;;;;;;4941781;29;19941;-79
2022/06/01 12:46:30;;;;;;;;;;;19.40;91.10;;;;;;4948754;29;19941;-80
2022/06/01 12:49:22;;;;;;;;;;;19.40;91.50;;;;;;4956056;28;19941;-79
2022/06/01 12:51:51;;;;;;;;;;;19.20;90.90;;;;;;4958809;28;19934;-79
2022/06/01 12:54:28;;;;;;;;;;;18.90;91.00;;;;;;4957373;28;19938;-79
2022/06/01 12:57:03;;;;;;;;;;;18.50;91.10;;;;;;4941550;29;19930;-79
2022/06/01 12:59:34;;;;;;;;;;;18.30;91.70;;;;;;4926772;29;19927;-79
2022/06/01 13:02:10;;;;;;;;;;;18.00;91.60;;;;;;4927155;29;19942;-79
2022/06/01 13:04:49;;;;;;;;;;;18.00;92.10;;;;;;4955347;28;19938;-79
2022/06/01 13:07:17;;;;;;;;;;;18.50;92.30;;;;;;4942688;29;19945;-78
2022/06/01 13:09:45;;;;;;;;;;;18.60;91.80;;;;;;4945102;29;19934;-79
2022/06/01 13:12:38;;;;;;;;;;;18.80;91.20;;;;;;4961025;28;19938;-79
2022/06/01 13:15:12;;;;;;;;;;;19.20;90.80;;;;;;4923326;29;19930;-79
2022/06/01 13:17:56;;;;;;;;;;;19.60;90.60;;;;;;4942435;29;19940;-80
2022/06/01 13:20:34;;;;;;;;;;;20.10;89.20;;;;;;4941504;29;19941;-79
2022/06/01 13:23:05;;;;;;;;;;;20.30;88.20;;;;;;4956842;28;20297;-80
2022/06/01 13:25:35;;;;;;;;;;;20.30;88.90;;;;;;4938615;28;19934;-79
2022/06/01 13:28:05;;;;;;;;;;;20.40;89.00;;;;;;4951748;28;19935;-81
2022/06/01 13:30:36;;;;;;;;;;;20.40;87.60;;;;;;4938401;29;19926;-79
2022/06/01 13:33:19;;;;;;;;;;;20.60;87.90;;;;;;4939385;29;19934;-76
2022/06/01 13:35:57;;;;;;;;;;;20.80;88.70;;;;;;4939268;29;19927;-79
2022/06/01 13:38:35;;;;;;;;;;;21.00;87.50;;;;;;4940362;29;19941;-77
2022/06/01 13:41:08;;;;;;;;;;;21.20;86.90;;;;;;4941293;28;19930;-78
2022/06/01 13:43:40;;;;;;;;;;;21.60;86.40;;;;;;4939471;29;20319;-79
2022/06/01 13:46:16;;;;;;;;;;;21.20;86.20;;;;;;4939717;29;19938;-77
2022/06/01 13:49:06;;;;;;;;;;;21.30;85.80;;;;;;4947315;28;19937;-79
2022/06/01 13:51:40;;;;;;;;;;;21.60;85.60;;;;;;4952075;28;19933;-77
2022/06/01 13:54:22;;;;;;;;;;;21.70;84.00;;;;;;4968234;28;19934;-78
2022/06/01 13:56:59;;;;;;;;;;;22.00;83.70;;;;;;4955825;28;19935;-78
2022/06/01 13:59:29;;;;;;;;;;;22.10;84.20;;;;;;4956224;28;19940;-79
2022/06/01 14:02:03;;;;;;;;;;;21.90;83.60;;;;;;4970646;28;19927;-79
2022/06/01 14:04:48;;;;;;;;;;;21.80;81.60;;;;;;4969875;28;19941;-78
2022/06/01 14:07:18;;;;;;;;;;;21.80;82.10;;;;;;4962400;28;19930;-78
2022/06/01 14:10:16;;;;;;;;;;;21.70;81.80;;;;;;5011040;22;19914;-94
2022/06/01 14:13:56;;;;;;;;;;;22.00;81.40;;;;;;5002221;28;19925;-95
2022/06/01 14:17:03;;;;;;;;;;;21.70;81.50;;;;;;5005525;28;19926;-92
2022/06/01 14:19:49;;;;;;;;;;;21.30;82.00;;;;;;5016113;28;19926;-92
2022/06/01 14:22:36;;;;;;;;;;;21.30;83.50;;;;;;4990470;28;19932;-94
2022/06/01 14:29:33;;;;;;;;;;;20.90;82.50;;;;;;4996165;28;19933;-94
2022/06/01 14:32:06;;;;;;;;;;;20.50;82.40;;;;;;4979936;28;19929;-78
2022/06/01 14:34:40;;;;;;;;;;;20.00;83.10;;;;;;4982702;28;19926;-78
2022/06/01 14:37:07;;;;;;;;;;;20.00;81.90;;;;;;4985939;28;19926;-78
2022/06/01 14:39:36;;;;;;;;;;;19.80;82.50;;;;;;5004141;28;19926;-78
2022/06/01 14:42:07;;;;;;;;;;;19.50;82.50;;;;;;4967829;28;19940;-79
2022/06/01 14:44:35;;;;;;;;;;;19.30;83.00;;;;;;4998858;28;19951;-77
2022/06/01 14:47:04;;;;;;;;;;;19.10;83.00;;;;;;4981700;28;20094;-81
2022/06/01 14:49:32;;;;;;;;;;;19.10;84.20;;;;;;4982823;28;19930;-79
2022/06/01 14:52:06;;;;;;;;;;;19.60;85.70;;;;;;4982100;28;19932;-81
2022/06/01 14:54:34;;;;;;;;;;;19.10;84.50;;;;;;4982842;28;19929;-79
2022/06/01 14:57:03;;;;;;;;;;;19.10;83.30;;;;;;4982011;28;19940;-78
2022/06/01 14:59:31;;;;;;;;;;;19.10;83.10;;;;;;4983004;28;19941;-78
2022/06/01 15:02:00;;;;;;;;;;;19.10;83.90;;;;;;5003421;28;19936;-79
2022/06/01 15:04:41;;;;;;;;;;;19.30;83.70;;;;;;4984542;28;19926;-78
2022/06/01 15:07:19;;;;;;;;;;;19.70;83.90;;;;;;4983293;28;19933;-77
2022/06/01 15:09:48;;;;;;;;;;;19.80;82.80;;;;;;4982223;28;19937;-78
2022/06/01 15:12:19;;;;;;;;;;;20.30;82.50;;;;;;5001162;28;20038;-79
2022/06/01 15:14:48;;;;;;;;;;;20.00;81.90;;;;;;5002088;28;19929;-79
2022/06/01 15:17:19;;;;;;;;;;;21.20;80.70;;;;;;4999429;28;19941;-78
2022/06/01 15:19:48;;;;;;;;;;;20.90;80.10;;;;;;4981699;28;19925;-78
2022/06/01 15:22:17;;;;;;;;;;;20.90;81.00;;;;;;4999922;28;19953;-77
2022/06/01 15:24:46;;;;;;;;;;;21.00;79.70;;;;;;4982510;28;19941;-78
2022/06/01 15:27:17;;;;;;;;;;;21.20;79.10;;;;;;4981957;28;19992;-79
2022/06/01 15:43:40;;;;;;;;;;;21.60;77.40;;;;;;4977268;28;19930;-79
2022/06/01 15:46:14;;;;;;;;;;;21.60;78.70;;;;;;4997462;28;19933;-78
2022/06/01 15:48:43;;;;;;;;;;;21.70;78.60;;;;;;4996961;28;19930;-79
2022/06/01 15:51:11;;;;;;;;;;;21.80;78.60;;;;;;4981927;28;19925;-81
2022/06/01 15:53:39;;;;;;;;;;;21.90;76.90;;;;;;4980851;28;19936;-79
2022/06/01 15:56:07;;;;;;;;;;;21.90;77.80;;;;;;4999059;28;19957;-80
2022/06/01 15:58:36;;;;;;;;;;;22.00;76.50;;;;;;4996054;28;19926;-78
2022/06/01 16:01:04;;;;;;;;;;;22.10;77.60;;;;;;4994611;28;19930;-79
2022/06/01 16:03:32;;;;;;;;;;;22.30;75.60;;;;;;4995068;28;19940;-78
2022/06/01 16:06:00;;;;;;;;;;;22.50;73.10;;;;;;4994276;28;19933;-80
2022/06/01 16:08:29;;;;;;;;;;;22.60;75.20;;;;;;4980647;28;19930;-80
2022/06/01 16:10:59;;;;;;;;;;;22.60;75.20;;;;;;4980067;28;19926;-86
2022/06/01 16:13:30;;;;;;;;;;;22.80;73.60;;;;;;4997578;28;19932;-79
2022/06/01 16:15:58;;;;;;;;;;;23.10;75.20;;;;;;4998273;28;19936;-79
2022/06/01 16:18:32;;;;;;;;;;;23.60;73.10;;;;;;4998635;28;19932;-77
2022/06/01 16:21:00;;;;;;;;;;;24.20;73.10;;;;;;4997661;28;19933;-78
2022/06/01 16:23:30;;;;;;;;;;;24.80;68.40;;;;;;4983332;28;19949;-80
2022/06/01 16:26:02;;;;;;;;;;;25.10;69.90;;;;;;5001748;28;19937;-80
2022/06/01 16:28:30;;;;;;;;;;;25.50;68.60;;;;;;5003734;28;19950;-80
2022/06/01 16:30:59;;;;;;;;;;;26.00;70.80;;;;;;5002926;28;19930;-78